Pagrindinis puslapis
METAR-TAF:

METAR-TAF

Oro uostai :

Resifė, Pernambuco, Brazilija

platuma: 08-08S, ilguma: 034-55W, Aukštis: 19 m

Dabartinis oras

Ataskaita buvo paskelbta 44 minutes, ne 05:00 UTC
Vėjas 4 kt iš Vakarų, svyruoja nuo Pietvakarių ir Vakarų/Šiaurės Vakarų
Temperatūra 23°C
Drėgmė 89%
Slėgis 1013 hPa
Matomumas: 8000 m
Su prošvaistėmis ne aukštis 1700 ft
Su prošvaistėmis ne aukštis 5000 ft
Liūtis kaimynystėje

METAR: SBRF 130500Z 26004KT 220V290 8000 VCSH BKN017 BKN050 23/21 Q1013

Laikas: 02:44 (05:44 UTC)

Prognozė

Ataskaita buvo paskelbta 2 valandos ir 44 minutes, ne 03:00 UTC
Prognozė galioja nuo 13 metu 06 UTC su 14 metu 06 UTC
Vėjas 6 kt iš Pietų/Pietvakarių
Matomumas: 9000 m
Išsisklaidę debesys ne aukštis 2200 ft
Tapsmas
nuo 13 metu 12 UTC su 13 metu 14 UTC
Vėjas 10 kt iš Pietų
Matomumas 10 km arba daugiau
Išsisklaidę debesys ne aukštis 2500 ft
Tapsmas
nuo 13 metu 20 UTC su 13 metu 22 UTC
Vėjas 9 kt iš Pietų
Mažai debesys ne aukštis 2300 ft
Tapsmas
nuo 14 metu 01 UTC su 14 metu 03 UTC
Vėjas 5 kt iš Pietų/Pietvakarių
Matomumas: 8000 m
Išsisklaidę debesys ne aukštis 2400 ft
lietus

TAF: SBRF 130300Z 1306/1406 20006KT 9000 SCT022 TN21/1309Z TX28/1317Z BECMG 1312/1314 17010KT 9999 SCT025 BECMG 1320/1322 17009KT FEW023 BECMG 1401/1403 20005KT 8000 SHRA SCT024 RMK SBKG 130300Z 1306/1318 13006KT 7000 SHRA BKN005 TN18/1309Z TX28/1318Z BECMG 1310/1312 16010KT 9000 BKN020 BECMG 1312/1314 14010KT 9999 BKN030 BECMG 1316/1318 12010KT SCT030 RMK PAY

Orai ataskaitas ir orų prognozės (METAR, TAF).

turimą stotys yra geltonos ir raudonos taškus žemėlapyje.

Perkelti pele per norėdami pamatyti stoties vardą.

Tada spustelėkite, norėdami matyti oro stebėjimo ir prognozės.

Norėdami pakeisti žemėlapį: spustelėkite ant žalios mygtukų su juodo kryžiaus žemyn,; žalią mygtuką su brūkšneliu, jei norite nutolinti; arba žalių rodyklių gretimoms žemėlapius.


METAR-TAF: